• Join FlightAware (Why Join?)
  • Login
  • US Flag 
04:37PM EDT


 

Airport Tracker/Info


-or-


 

Live Flight TrackerFlight Track Log ✈ DAL268 ✈ 05-Aug-2013 ✈ KSFO - KJFK

Flight Track Log - Related Links

Times and Time Zones

All times are in EDT time to prevent confusion due to time zone crossing. See the DAL268 flight status page for this flight to view local times or setup timezone preferences in your user account.

Time Position Orientation Groundspeed Altitude Reporting Facility
EDT Latitude Longitude Course Direction KTS MPH feet Rate Location/Type
02:44PM 37.6306 -122.3650 26° Northeast 161 185 600  Level FlightAware ADS-B
02:44PM 37.6385 -122.3580 35° Northeast 170 196 1,100 2,280 Climbing FlightAware ADS-B
02:44PM 37.6426 -122.3520 49° Northeast 175 201 1,400 1,860 Climbing FlightAware ADS-B
02:45PM 37.6472 -122.3460 46° Northeast 189 217 1,600 1,200 Climbing FlightAware ADS-B
02:45PM 37.6578 -122.3330 44° Northeast 209 241 1,900 1,320 Climbing FlightAware ADS-B
02:45PM 37.6692 -122.3190 44° Northeast 238 274 2,300 1,920 Climbing FlightAware ADS-B
02:45PM 37.6816 -122.3030 46° Northeast 254 292 2,900 2,100 Climbing FlightAware ADS-B
02:46PM 37.6952 -122.2860 45° Northeast 272 313 3,400 2,700 Climbing FlightAware ADS-B
02:46PM 37.7116 -122.2650 45° Northeast 275 316 4,400 3,060 Climbing FlightAware ADS-B
02:46PM 37.7227 -122.2510 45° Northeast 279 321 5,000 2,880 Climbing FlightAware ADS-B
02:46PM 37.7384 -122.2320 44° Northeast 283 326 5,800 3,000 Climbing FlightAware ADS-B
02:47PM 37.7535 -122.2160 40° Northeast 285 328 6,600 3,060 Climbing FlightAware ADS-B
02:47PM 37.7701 -122.1990 39° Northeast 289 333 7,400 2,880 Climbing FlightAware ADS-B
02:47PM 37.7873 -122.1820 38° Northeast 295 339 8,100 2,580 Climbing FlightAware ADS-B
02:47PM 37.8049 -122.1650 37° Northeast 300 345 8,800 2,580 Climbing FlightAware ADS-B
02:48PM 37.8225 -122.1490 36° Northeast 304 350 9,500 2,160 Climbing FlightAware ADS-B
02:48PM 37.8581 -122.1150 37° Northeast 327 376 10,500 1,440 Climbing FlightAware ADS-B
02:49PM 37.8973 -122.0780 37° Northeast 361 415 11,000 1,140 Climbing FlightAware ADS-B
02:49PM 37.9405 -122.0360 37° Northeast 390 449 11,700 1,800 Climbing FlightAware ADS-B
02:50PM 37.9960 -121.9830 37° Northeast 401 461 13,100 2,280 Climbing FlightAware ADS-B
02:50PM 38.0510 -121.9310 37° Northeast 409 471 14,600 2,220 Climbing FlightAware ADS-B
02:51PM 38.1140 -121.8710 37° Northeast 419 482 16,100 2,100 Climbing FlightAware
02:52PM 38.1710 -121.8160 37° Northeast 428 493 17,400 2,040 Climbing FlightAware
02:52PM 38.2260 -121.7610 38° Northeast 435 501 18,600 1,980 Climbing FlightAware
02:53PM 38.2550 -121.7200 48° Northeast 434 499 19,300 1,980 Climbing FlightAware
02:53PM 38.2940 -121.6410 58° Northeast 440 506 20,500 1,920 Climbing FlightAware
02:54PM 38.3270 -121.5720 59° Northeast 446 513 21,500 1,860 Climbing FlightAware
02:54PM 38.3670 -121.4890 58° Northeast 453 521 22,600 1,800 Climbing FlightAware
02:55PM 38.4020 -121.4150 59° Northeast 457 526 23,600 1,740 Climbing FlightAware
02:55PM 38.4350 -121.3460 59° Northeast 462 532 24,400 1,560 Climbing FlightAware
02:56PM 38.4578 -121.2980 59° Northeast 25,000 1,560 Climbing FlightAware ADS-B
02:57PM 38.5400 -121.1690 51° Northeast 474 545 26,500 1,440 Climbing FlightAware
02:57PM 38.5940 -121.0830 51° Northeast 481 554 27,400 1,260 Climbing FlightAware
02:58PM 38.6540 -120.9860 52° Northeast 487 560 28,300 1,320 Climbing FlightAware
02:59PM 38.7000 -120.9120 51° Northeast 487 560 29,100 1,440 Climbing FlightAware
02:59PM 38.7490 -120.8310 52° Northeast 489 563 30,000 1,380 Climbing FlightAware
03:00PM 38.7930 -120.7600 51° Northeast 489 563 30,700 840 Climbing FlightAware
03:01PM 38.8460 -120.6760 51° Northeast 491 565 31,000 480 Climbing FlightAware
03:01PM 38.8960 -120.5970 51° Northeast 492 566 31,300 960 Climbing FlightAware
03:02PM 38.9480 -120.5150 51° Northeast 490 564 32,200 1,380 Climbing FlightAware
03:02PM 38.9960 -120.4380 51° Northeast 491 565 32,900 1,140 Climbing FlightAware
03:03PM 39.0450 -120.3590 51° Northeast 493 567 33,500 1,080 Climbing FlightAware
03:03PM 39.1020 -120.2670 51° Northeast 495 570 34,300 1,080 Climbing FlightAware
03:04PM 39.1620 -120.1700 51° Northeast 496 571 35,000 1,020 Climbing FlightAware
03:05PM 39.2070 -120.0980 51° Northeast 496 571 35,600 1,020 Climbing FlightAware
03:05PM 39.2600 -120.0120 51° Northeast 498 573 36,200 840 Climbing FlightAware
03:06PM 39.3140 -119.9240 52° Northeast 502 578 36,700 660 Climbing FlightAware
03:06PM 39.3600 -119.8490 52° Northeast 503 579 37,000 240 Climbing FlightAware
03:07PM 39.4070 -119.7740 51° Northeast 503 579 37,000  Level FlightAware
03:08PM 39.4640 -119.6790 52° Northeast 501 577 37,000  Level FlightAware
03:08PM 39.5100 -119.6040 52° Northeast 502 578 37,000  Level FlightAware
03:09PM 39.5630 -119.5180 51° Northeast 503 579 37,000  Level FlightAware
03:09PM 39.6090 -119.4410 52° Northeast 505 581 37,000  Level FlightAware
03:10PM 39.6630 -119.3510 52° Northeast 506 582 37,000  Level FlightAware
03:10PM 39.7070 -119.2790 52° Northeast 507 583 37,000  Level FlightAware
03:12PM 39.7860 -119.1480 52° Northeast 506 582 37,000  Level FlightAware
03:12PM 39.8580 -119.0280 52° Northeast 503 579 37,000  Level FlightAware
03:13PM 39.8990 -118.9590 52° Northeast 503 579 37,000  Level FlightAware
03:13PM 39.9570 -118.8620 52° Northeast 503 579 37,000  Level FlightAware
03:14PM 39.9990 -118.7910 52° Northeast 502 578 37,000  Level FlightAware
03:14PM 40.0510 -118.7040 52° Northeast 504 580 37,000  Level FlightAware
03:15PM 40.1010 -118.6180 53° Northeast 503 579 37,000  Level FlightAware
03:16PM 40.1410 -118.5200 62° Northeast 496 571 37,000  Level FlightAware
03:16PM 40.1680 -118.4270 69° East 494 568 37,000  Level FlightAware
03:17PM 40.1950 -118.3250 71° East 494 568 37,000  Level FlightAware
03:17PM 40.2220 -118.2270 70° East 496 571 37,000  Level FlightAware
03:18PM 40.2500 -118.1230 71° East 498 573 37,000  Level FlightAware
03:19PM 40.2740 -118.0340 71° East 499 574 37,000  Level FlightAware
03:19PM 40.3000 -117.9390 70° East 500 575 37,000  Level FlightAware
03:19PM 40.3120 -117.8950 70° East 500 575 37,000  Level FlightAware
03:20PM 40.3480 -117.7650 70° East 500 575 37,000  Level FlightAware
03:21PM 40.3770 -117.6580 70° East 500 575 37,000  Level FlightAware
03:22PM 40.4010 -117.5710 70° East 500 575 37,000  Level FlightAware
03:22PM 40.4260 -117.4830 70° East 500 575 37,000  Level FlightAware
03:23PM 40.4510 -117.3940 70° East 500 575 37,000  Level FlightAware
03:24PM 40.4910 -117.2450 71° East 500 575 37,000  Level FlightAware
03:25PM 40.5240 -117.1260 70° East 500 575 37,000  Level FlightAware
03:25PM 40.5490 -117.0390 69° East 500 575 37,000  Level FlightAware
03:26PM 40.5730 -116.9510 70° East 500 575 37,000  Level FlightAware
03:26PM 40.5970 -116.8640 70° East 500 575 37,000  Level FlightAware
03:27PM 40.6220 -116.7740 70° East 500 575 37,000  Level FlightAware
03:28PM 40.6460 -116.6860 70° East 500 575 37,000  Level FlightAware
03:28PM 40.6700 -116.5980 70° East 500 575 37,000  Level FlightAware
03:29PM 40.6940 -116.5100 70° East 500 575 37,000  Level FlightAware
03:29PM 40.7633 -116.2040 73° East 509 586 37,000  Level FlightAware ADS-B
03:30PM 40.7867 -116.1160 71° East 509 586 37,000  Level FlightAware ADS-B
03:30PM 40.8101 -116.0270 71° East 508 585 37,000  Level FlightAware ADS-B
03:31PM 40.8398 -115.9140 71° East 509 586 37,000  Level FlightAware ADS-B
03:31PM 40.8634 -115.8250 71° East 509 586 37,000  Level FlightAware ADS-B
03:34PM 40.9992 -115.3010 71° East 510 587 37,000  Level FlightAware ADS-B
03:35PM 41.0222 -115.2120 71° East 511 588 37,000  Level FlightAware ADS-B
03:35PM 41.0472 -115.1140 71° East 512 589 37,000  Level FlightAware ADS-B
03:36PM 41.0758 -115.0010 71° East 514 592 37,000  Level FlightAware ADS-B
03:36PM 41.0988 -114.9110 71° East 515 593 37,000  Level FlightAware ADS-B
03:37PM 41.1217 -114.8200 72° East 515 593 37,000  Level FlightAware ADS-B
03:38PM 41.1549 -114.6870 72° East 514 592 37,000  Level FlightAware ADS-B
03:38PM 41.1774 -114.5970 72° East 514 592 37,000 360 Level FlightAware ADS-B
03:39PM 41.2002 -114.5050 72° East 513 590 37,400 840 Climbing FlightAware ADS-B
03:39PM 41.2226 -114.4150 72° East 510 587 37,900 720 Climbing FlightAware ADS-B
03:40PM 41.2520 -114.2960 72° East 513 590 38,300 660 Climbing FlightAware ADS-B
03:40PM 41.2741 -114.2060 72° East 513 590 38,700 660 Climbing FlightAware ADS-B
03:41PM 41.2962 -114.1150 72° East 513 590 39,000 300 Climbing FlightAware ADS-B
03:41PM 41.3181 -114.0260 72° East 512 589 39,000  Level FlightAware ADS-B
03:42PM 41.3400 -113.9360 72° East 510 587 39,000  Level FlightAware ADS-B
03:42PM 41.3524 -113.8820 73° East 511 588 39,000  Level FlightAware ADS-B
03:43PM 41.3624 -113.8310 75° East 509 586 39,000  Level FlightAware ADS-B
03:43PM 41.3704 -113.7810 78° East 508 585 39,000  Level FlightAware ADS-B
03:43PM 41.3829 -113.6890 80° East 508 585 39,000  Level FlightAware ADS-B
03:44PM 41.3949 -113.5950 80° East 510 587 39,000  Level FlightAware ADS-B
03:44PM 41.4070 -113.5000 80° East 511 588 39,000  Level FlightAware ADS-B
03:45PM 41.4187 -113.4060 81° East 511 588 39,000  Level FlightAware ADS-B
03:45PM 41.4307 -113.3110 80° East 511 588 39,000  Level FlightAware ADS-B
03:46PM 41.4443 -113.2020 81° East 510 587 39,000  Level FlightAware ADS-B
03:46PM 41.4559 -113.1080 81° East 511 588 39,000  Level FlightAware ADS-B
03:47PM 41.4691 -113.0000 81° East 511 588 39,000  Level FlightAware ADS-B
03:48PM 41.4807 -112.9060 81° East 512 589 39,000  Level FlightAware ADS-B
03:48PM 41.4922 -112.8110 81° East 514 592 39,000  Level FlightAware ADS-B
03:49PM 41.5052 -112.7030 81° East 514 592 39,000  Level FlightAware ADS-B
03:49PM 41.5172 -112.6030 81° East 513 590 39,000  Level FlightAware ADS-B
03:50PM 41.5285 -112.5080 81° East 513 590 39,000  Level FlightAware ADS-B
03:50PM 41.5397 -112.4080 81° East 513 590 39,000  Level FlightAware ADS-B
03:51PM 41.5498 -112.3110 82° East 513 590 39,000  Level FlightAware ADS-B
03:51PM 41.5596 -112.2150 82° East 514 592 39,000  Level FlightAware ADS-B
03:52PM 41.5695 -112.1200 82° East 515 593 39,000  Level FlightAware ADS-B
03:52PM 41.5796 -112.0210 82° East 514 592 39,000  Level FlightAware ADS-B
03:53PM 41.5895 -111.9250 82° East 513 590 39,000  Level FlightAware ADS-B
03:53PM 41.5992 -111.8300 82° East 512 589 39,000  Level FlightAware ADS-B
03:54PM 41.6087 -111.7350 82° East 511 588 39,000  Level FlightAware ADS-B
03:54PM 41.6184 -111.6380 82° East 509 586 39,000  Level FlightAware ADS-B
03:55PM 41.6279 -111.5420 82° East 511 588 39,000  Level FlightAware ADS-B
03:55PM 41.6382 -111.4370 82° East 511 588 39,000  Level FlightAware ADS-B
03:56PM 41.6479 -111.3380 82° East 512 589 39,000  Level FlightAware ADS-B
03:56PM 41.6572 -111.2410 83° East 513 590 39,000  Level FlightAware ADS-B
03:57PM 41.6667 -111.1420 83° East 514 592 39,000  Level FlightAware ADS-B
03:57PM 41.6757 -111.0460 83° East 515 593 39,000  Level FlightAware ADS-B
03:58PM 41.6848 -110.9480 83° East 519 597 39,000  Level FlightAware ADS-B
03:58PM 41.6937 -110.8520 83° East 521 600 39,000  Level FlightAware ADS-B
03:59PM 41.7073 -110.7040 83° East 525 604 39,000  Level FlightAware ADS-B
04:01PM 41.7297 -110.4583 83° East 525 604 39,000  Level Salt Lake Center
04:02PM 41.7456 -110.2731 83° East 524 603 39,000  Level Salt Lake Center
04:03PM 41.7639 -110.0550 83° East 526 605 39,000  Level Salt Lake Center
04:04PM 41.7803 -109.8664 83° East 531 611 39,000  Level Salt Lake Center
04:05PM 41.7958 -109.6775 84° East 533 613 39,000  Level Salt Lake Center
04:06PM 41.8139 -109.4589 84° East 529 609 39,000  Level Salt Lake Center
04:07PM 41.8308 -109.2694 83° East 530 610 39,000  Level Salt Lake Center
04:08PM 41.8461 -109.0478 85° East 531 611 39,000  Level Salt Lake Center
04:09PM 41.8608 -108.8572 84° East 533 613 39,000  Level Salt Lake Center
04:10PM 41.8761 -108.6342 85° East 534 615 39,000  Level Salt Lake Center
04:11PM 41.8894 -108.4417 85° East 538 619 39,000  Level Salt Lake Center
04:12PM 41.9061 -108.2567 83° East 527 606 39,000  Level Salt Lake Center
04:13PM 41.9178 -108.0336 86° East 534 615 39,000  Level Salt Lake Center
04:14PM 41.9303 -107.8467 85° East 529 609 39,000  Level Salt Lake Center
04:15PM 41.9433 -107.6286 85° East 524 603 39,000  Level Salt Lake Center
04:16PM 41.9550 -107.4394 85° East 529 609 39,000  Level Salt Lake Center
04:21PM 42.0190 -106.3540 85° East 538 619 39,000  Level FlightAware
04:22PM 42.0240 -106.2500 86° East 538 619 39,000  Level FlightAware
04:22PM 42.0280 -106.1710 86° East 539 620 39,000  Level FlightAware
04:23PM 42.0300 -106.1310 86° East 539 620 39,000  Level FlightAware
04:24PM 42.0420 -105.8830 86° East 537 618 39,000  Level FlightAware
04:24PM 42.0470 -105.7900 86° East 536 617 39,000  Level FlightAware
04:25PM 42.0560 -105.6070 86° East 537 618 39,000  Level FlightAware
04:26PM 42.0610 -105.5050 86° East 537 618 39,000  Level FlightAware
04:26PM 42.0660 -105.3670 87° East 536 617 39,000  Level FlightAware
04:27PM 42.0710 -105.2590 86° East 535 616 39,000  Level FlightAware
04:27PM 42.0777 -105.1360 86° East 537 618 39,000  Level FlightAware ADS-B
04:28PM 42.0859 -105.0370 84° East 537 618 39,000  Level FlightAware ADS-B
04:28PM 42.0945 -104.9370 83° East 536 617 39,000  Level FlightAware ADS-B
04:29PM 42.1035 -104.8350 83° East 536 617 39,000  Level FlightAware ADS-B
04:30PM 42.1122 -104.7350 83° East 537 618 39,000  Level FlightAware ADS-B
04:30PM 42.1208 -104.6350 83° East 537 618 39,000  Level FlightAware ADS-B
04:31PM 42.1296 -104.5310 83° East 536 617 39,000  Level FlightAware ADS-B
04:31PM 42.1382 -104.4290 83° East 534 615 39,000  Level FlightAware ADS-B
04:32PM 42.1469 -104.3240 84° East 531 611 39,000  Level FlightAware ADS-B
04:32PM 42.1550 -104.2250 84° East 531 611 39,000  Level FlightAware ADS-B
04:33PM 42.1631 -104.1250 84° East 532 612 39,000  Level FlightAware ADS-B
04:33PM 42.1712 -104.0250 84° East 533 613 39,000  Level FlightAware ADS-B
04:34PM 42.1794 -103.9200 84° East 535 616 39,000  Level FlightAware ADS-B
04:34PM 42.1874 -103.8190 84° East 535 616 39,000  Level FlightAware ADS-B
04:35PM 42.1950 -103.7200 84° East 535 616 39,000  Level FlightAware ADS-B
04:35PM 42.2392 -103.5830 66° East 534 615 39,000  Level FlightAware ADS-B
04:36PM 42.2103 -103.5200 122° Southeast 534 615 39,000  Level FlightAware ADS-B
04:36PM 42.2182 -103.4130 84° East 535 616 39,000  Level FlightAware ADS-B
04:37PM 42.2258 -103.3110 84° East 536 617 39,000  Level FlightAware ADS-B
04:37PM 42.2332 -103.2090 84° East 536 617 39,000  Level FlightAware ADS-B
04:38PM 42.2404 -103.1090 84° East 534 615 39,000  Level FlightAware ADS-B
04:38PM 42.2475 -103.0100 84° East 533 613 39,000  Level FlightAware ADS-B
04:39PM 42.2545 -102.9100 85° East 533 613 39,000  Level FlightAware ADS-B
04:39PM 42.2616 -102.8080 85° East 533 613 39,000  Level FlightAware ADS-B
04:40PM 42.2686 -102.7050 85° East 534 615 39,000  Level FlightAware ADS-B
04:40PM 42.2771 -102.5790 85° East 535 616 39,000  Level FlightAware ADS-B
04:41PM 42.2837 -102.4790 85° East 536 617 39,000  Level FlightAware ADS-B
04:41PM 42.2904 -102.3760 85° East 537 618 39,000  Level FlightAware ADS-B
04:42PM 42.2993 -102.2400 85° East 538 619 39,000  Level FlightAware ADS-B
04:43PM 42.3090 -102.0850 85° East 538 619 39,000  Level FlightAware ADS-B
04:44PM 42.3200 -101.8919 85° East 536 617 39,000  Level Minneapolis Center
04:45PM 42.3369 -101.6106 85° East 537 618 39,000  Level Minneapolis Center
04:46PM 42.3483 -101.4111 86° East 534 615 39,000  Level Minneapolis Center
04:47PM 42.3594 -101.2103 86° East 534 615 39,000  Level Minneapolis Center
04:49PM 42.3717 -100.9892 86° East 532 612 39,000  Level Denver Center
04:50PM 42.3842 -100.7631 86° East 538 619 39,000  Level Denver Center
04:50PM 42.3917 -100.6042 86° East 539 620 39,000  Level Minneapolis Center
04:51PM 42.4014 -100.4033 86° East 536 617 39,000  Level Minneapolis Center
04:53PM 42.4122 -100.1586 86° East 539 620 39,000  Level Minneapolis Center
04:54PM 42.4222 -99.9553 86° East 540 621 39,000  Level Minneapolis Center
04:55PM 42.4303 -99.7517 87° East 541 623 39,000  Level Minneapolis Center
04:56PM 42.4389 -99.5481 87° East 542 624 39,000  Level Minneapolis Center
04:57PM 42.4450 -99.3869 87° East 537 618 39,000  Level Minneapolis Center
04:58PM 42.4553 -99.1425 87° East 540 621 39,000  Level Minneapolis Center
04:59PM 42.4622 -98.9381 87° East 542 624 39,000  Level Minneapolis Center
05:00PM 42.4708 -98.6928 87° East 542 624 39,000  Level Minneapolis Center
05:06PM 42.5250 -97.5170 87° East 539 620 39,000  Level FlightAware
05:06PM 42.5290 -97.3980 87° East 539 620 39,000  Level FlightAware
05:07PM 42.5350 -97.2630 87° East 540 621 39,000  Level FlightAware
05:07PM 42.5400 -97.1330 87° East 541 623 39,000  Level FlightAware
05:08PM 42.5440 -97.0100 87° East 542 624 39,000  Level FlightAware
05:09PM 42.5490 -96.8760 87° East 543 625 39,000  Level FlightAware
05:09PM 42.5540 -96.7310 87° East 544 626 39,000  Level FlightAware
05:10PM 42.5580 -96.6180 87° East 544 626 39,000  Level FlightAware
05:10PM 42.5610 -96.5080 88° East 544 626 39,000  Level FlightAware
05:11PM 42.5670 -96.3200 87° East 544 626 39,000  Level FlightAware
05:12PM 42.5710 -96.2120 87° East 545 627 39,000  Level FlightAware
05:13PM 42.5740 -96.0880 88° East 546 628 39,000  Level FlightAware
05:13PM 42.5780 -95.9680 87° East 546 628 39,000  Level FlightAware
05:14PM 42.5810 -95.8550 88° East 545 627 39,000  Level FlightAware
05:14PM 42.5840 -95.7360 88° East 545 627 39,000  Level FlightAware
05:15PM 42.5870 -95.6120 88° East 546 628 39,000  Level FlightAware
05:15PM 42.5900 -95.4880 88° East 548 631 39,000  Level FlightAware
05:16PM 42.5920 -95.3790 89° East 549 632 39,000  Level FlightAware
05:17PM 42.5950 -95.2630 88° East 548 631 39,000  Level FlightAware
05:17PM 42.5970 -95.1290 89° East 547 629 39,000  Level FlightAware
05:18PM 42.6000 -95.0060 88° East 546 628 39,000  Level FlightAware
05:18PM 42.6020 -94.8860 89° East 547 629 39,000  Level FlightAware
05:19PM 42.6040 -94.7730 89° East 547 629 39,000  Level FlightAware
05:19PM 42.6050 -94.6840 89° East 548 631 39,000  Level FlightAware
05:20PM 42.6080 -94.5270 88° East 550 633 39,000  Level FlightAware
05:21PM 42.6100 -94.3620 89° East 550 633 39,000  Level FlightAware
05:21PM 42.6120 -94.2560 88° East 550 633 39,000  Level FlightAware
05:22PM 42.6130 -94.0990 89° East 549 632 39,000  Level FlightAware
05:22PM 42.6130 -94.0580 90° East 550 633 39,000  Level FlightAware
05:23PM 42.6140 -93.8630 90° East 551 634 39,000  Level FlightAware
05:24PM 42.6150 -93.7400 89° East 551 634 39,000  Level FlightAware
05:25PM 42.6160 -93.6290 89° East 552 635 39,000  Level FlightAware
05:25PM 42.6160 -93.4960 90° East 552 635 39,000  Level FlightAware
05:26PM 42.6160 -93.3830 90° East 552 635 39,000  Level FlightAware
05:26PM 42.6170 -93.2570 89° East 552 635 39,000  Level FlightAware
05:27PM 42.6170 -93.1510 90° East 552 635 39,000  Level FlightAware
05:27PM 42.6170 -93.0220 90° East 552 635 39,000  Level FlightAware
05:28PM 42.6160 -92.9040 91° East 552 635 39,000  Level FlightAware
05:29PM 42.6160 -92.7780 90° East 551 634 39,000  Level FlightAware
05:29PM 42.6160 -92.6480 90° East 552 635 39,000  Level FlightAware
05:30PM 42.6150 -92.5360 91° East 554 638 39,000  Level FlightAware
05:30PM 42.6140 -92.4130 91° East 552 635 39,000  Level FlightAware
05:31PM 42.6130 -92.2920 91° East 550 633 39,000  Level FlightAware
05:32PM 42.6120 -92.1800 91° East 550 633 39,000  Level FlightAware
05:32PM 42.6110 -92.0540 91° East 551 634 39,000  Level FlightAware
05:33PM 42.6100 -91.9420 91° East 550 633 39,000  Level FlightAware
05:33PM 42.6080 -91.7910 91° East 548 631 39,000  Level FlightAware
05:34PM 42.6070 -91.6610 91° East 550 633 39,000  Level FlightAware
05:35PM 42.6050 -91.5410 91° East 550 633 39,000  Level FlightAware
05:35PM 42.6040 -91.4420 91° East 550 633 39,000  Level FlightAware
05:36PM 42.6020 -91.3060 91° East 550 633 39,000  Level FlightAware
05:36PM 42.6000 -91.1830 91° East 550 633 39,000  Level FlightAware
05:37PM 42.5970 -91.0580 92° East 550 633 39,000  Level FlightAware
05:38PM 42.5950 -90.9440 91° East 551 634 39,000  Level FlightAware
05:38PM 42.5930 -90.8210 91° East 550 633 39,000  Level FlightAware
05:39PM 42.5900 -90.6960 92° East 548 631 39,000  Level FlightAware
05:39PM 42.5870 -90.5750 92° East 545 627 39,000  Level FlightAware
05:39PM 42.5860 -90.5330 92° East 544 626 39,000  Level FlightAware
05:40PM 42.5820 -90.3500 92° East 545 627 39,000  Level FlightAware
05:41PM 42.5790 -90.2410 92° East 545 627 39,000  Level FlightAware
05:41PM 42.5760 -90.1290 92° East 543 625 39,000  Level FlightAware
05:42PM 42.5710 -89.9350 92° East 540 621 39,000  Level FlightAware
05:43PM 42.5680 -89.8150 92° East 543 625 39,000  Level FlightAware
05:44PM 42.5640 -89.6910 92° East 546 628 39,000  Level FlightAware
05:44PM 42.5600 -89.5680 92° East 545 627 39,000  Level FlightAware
05:45PM 42.5570 -89.4780 93° East 544 626 39,000  Level FlightAware
05:45PM 42.5530 -89.3410 92° East 542 624 39,000  Level FlightAware
05:46PM 42.5490 -89.2200 93° East 540 621 39,000  Level FlightAware
05:47PM 42.5440 -89.1000 93° East 540 621 39,000  Level FlightAware
05:47PM 42.5410 -88.9920 92° East 540 621 39,000  Level FlightAware
05:48PM 42.5360 -88.8720 93° East 541 623 39,000  Level FlightAware
05:48PM 42.5310 -88.7490 93° East 542 624 39,000  Level FlightAware
05:49PM 42.5270 -88.6330 93° East 542 624 39,000  Level FlightAware
05:49PM 42.5220 -88.5130 93° East 542 624 39,000  Level FlightAware
05:50PM 42.5170 -88.3910 93° East 540 621 39,000  Level FlightAware
05:51PM 42.5120 -88.2750 93° East 541 623 39,000  Level FlightAware
05:51PM 42.5070 -88.1580 93° East 541 623 39,000  Level FlightAware
05:52PM 42.5020 -88.0370 93° East 537 618 39,000  Level FlightAware
05:52PM 42.5000 -87.9200 91° East 533 613 39,000  Level FlightAware
05:53PM 42.5000 -87.8050 90° East 533 613 39,000  Level FlightAware
05:54PM 42.5000 -87.6830 90° East 536 617 39,000  Level FlightAware
05:54PM 42.4990 -87.5660 91° East 536 617 39,000  Level FlightAware
05:55PM 42.4990 -87.4580 90° East 538 619 39,000  Level FlightAware
05:55PM 42.4990 -87.3320 90° East 540 621 39,000  Level FlightAware
05:56PM 42.4980 -87.2190 91° East 541 623 39,000  Level FlightAware
05:56PM 42.4970 -87.1060 91° East 539 620 39,000  Level FlightAware
05:57PM 42.4960 -86.9940 91° East 536 617 39,000  Level FlightAware
05:58PM 42.4950 -86.8790 91° East 535 616 39,000  Level FlightAware
05:58PM 42.4950 -86.7440 90° East 535 616 39,000  Level FlightAware
05:59PM 42.4950 -86.6520 90° East 535 616 39,000  Level FlightAware
05:59PM 42.4950 -86.5520 90° East 535 616 39,000  Level FlightAware
06:00PM 42.4890 -86.3740 93° East 540 621 39,000  Level FlightAware
06:01PM 42.4870 -86.2590 91° East 542 624 39,000  Level FlightAware
06:01PM 42.4860 -86.1440 91° East 543 625 39,000  Level FlightAware
06:02PM 42.4830 -86.0210 92° East 543 625 39,000  Level FlightAware
06:02PM 42.4810 -85.9020 91° East 543 625 39,000  Level FlightAware
06:03PM 42.4790 -85.7720 91° East 542 624 39,000  Level FlightAware
06:04PM 42.4770 -85.6710 92° East 543 625 39,000  Level FlightAware
06:04PM 42.4740 -85.5470 92° East 544 626 39,000  Level FlightAware
06:05PM 42.4720 -85.4270 91° East 545 627 39,000  Level FlightAware
06:05PM 42.4690 -85.2950 92° East 545 627 39,000  Level FlightAware
06:06PM 42.4660 -85.1920 92° East 544 626 39,000  Level FlightAware
06:06PM 42.4640 -85.0780 91° East 543 625 39,000  Level FlightAware
06:07PM 42.4600 -84.9390 92° East 541 623 39,000  Level FlightAware
06:08PM 42.4570 -84.8170 92° East 541 623 39,000  Level FlightAware
06:08PM 42.4530 -84.6900 92° East 542 624 39,000  Level FlightAware
06:09PM 42.4500 -84.5740 92° East 543 625 39,000  Level FlightAware
06:10PM 42.4460 -84.4420 92° East 544 626 39,000  Level FlightAware
06:10PM 42.4420 -84.3320 93° East 545 627 39,000  Level FlightAware
06:11PM 42.4400 -84.2450 92° East 546 628 39,000  Level FlightAware
06:11PM 42.4340 -84.0820 93° East 545 627 39,000  Level FlightAware
06:12PM 42.4300 -83.9560 92° East 544 626 39,000  Level FlightAware
06:13PM 42.4250 -83.8300 93° East 543 625 39,000  Level FlightAware
06:13PM 42.4220 -83.7270 92° East 544 626 39,000  Level FlightAware
06:14PM 42.4170 -83.5940 93° East 546 628 39,000  Level FlightAware
06:14PM 42.4120 -83.4700 93° East 547 629 39,000  Level FlightAware
06:15PM 42.4070 -83.3530 93° East 547 629 39,000  Level FlightAware
06:15PM 42.4020 -83.2330 93° East 547 629 39,000  Level FlightAware
06:16PM 42.3970 -83.1100 93° East 547 629 39,000  Level FlightAware
06:17PM 42.3930 -83.0080 93° East 545 627 39,000  Level FlightAware
06:17PM 42.3870 -82.8740 93° East 548 631 39,000  Level FlightAware
06:18PM 42.3820 -82.7700 94° East 551 634 39,000  Level FlightAware
06:18PM 42.3760 -82.6290 93° East 550 633 39,000  Level FlightAware
06:19PM 42.3710 -82.5100 93° East 548 631 39,000  Level FlightAware
06:19PM 42.3680 -82.4150 92° East 548 631 39,000  Level FlightAware
06:20PM 42.3600 -82.2280 93° East 550 633 39,000  Level FlightAware
06:21PM 42.3540 -82.0670 93° East 549 632 39,000  Level FlightAware
06:22PM 42.3470 -81.9250 94° East 547 629 39,000  Level FlightAware
06:22PM 42.3430 -81.8210 93° East 545 627 39,000  Level FlightAware
06:23PM 42.3330 -81.6060 94° East 546 628 39,000  Level FlightAware
06:24PM 42.3260 -81.4720 94° East 543 625 39,000  Level FlightAware
06:25PM 42.3200 -81.3490 94° East 541 623 39,000  Level FlightAware
06:25PM 42.3150 -81.2410 94° East 542 624 39,000  Level FlightAware
06:26PM 42.3090 -81.1190 94° East 543 625 39,000  Level FlightAware
06:26PM 42.3020 -80.9960 94° East 544 626 39,000  Level FlightAware
06:27PM 42.2960 -80.8840 94° East 543 625 39,000  Level FlightAware
06:28PM 42.2890 -80.7480 94° East 543 625 39,000  Level FlightAware
06:28PM 42.2800 -80.6470 97° East 547 629 39,000  Level FlightAware
06:29PM 42.2640 -80.5210 100° East 548 631 39,000  Level FlightAware
06:29PM 42.2470 -80.3960 100° East 548 631 39,000  Level FlightAware
06:30PM 42.2310 -80.2780 100° East 548 631 39,000  Level FlightAware
06:31PM 42.2120 -80.1430 101° East 549 632 39,000  Level FlightAware
06:31PM 42.1980 -80.0440 101° East 548 631 39,000  Level FlightAware
06:32PM 42.1810 -79.9260 101° East 546 628 39,000  Level FlightAware
06:32PM 42.1650 -79.8140 101° East 547 629 39,000  Level FlightAware
06:33PM 42.1450 -79.6770 101° East 548 631 39,000  Level FlightAware
06:34PM 42.1300 -79.5750 101° East 543 625 39,000  Level FlightAware
06:34PM 42.1150 -79.4730 101° East 541 623 39,000  Level FlightAware
06:35PM 42.0960 -79.3460 101° East 540 621 39,000  Level FlightAware
06:35PM 42.0760 -79.2120 101° East 545 627 39,000  Level FlightAware
06:36PM 42.0620 -79.1140 101° East 548 631 39,000  Level FlightAware
06:36PM 42.0440 -78.9960 102° East 551 634 39,000  Level FlightAware
06:37PM 42.0260 -78.8790 102° East 550 633 39,000  Level FlightAware
06:38PM 42.0080 -78.7570 101° East 551 634 39,000  Level FlightAware
06:38PM 41.9910 -78.6460 102° East 549 632 39,000  Level FlightAware
06:39PM 41.9730 -78.5320 102° East 548 631 39,000  Level FlightAware
06:39PM 41.9540 -78.4110 102° East 550 633 39,000  Level FlightAware
06:39PM 41.9530 -78.4020 98° East 550 633 39,000  Level FlightAware
06:42PM 41.8670 -77.8710 102° East 549 632 39,000  Level FlightAware
06:43PM 41.8380 -77.7470 107° East 551 634 39,000  Level FlightAware
06:43PM 41.8030 -77.6150 110° East 551 634 39,000  Level FlightAware
06:44PM 41.7650 -77.4720 110° East 550 633 39,000  Level FlightAware
06:44PM 41.7630 -77.4660 114° Southeast 550 633 39,000  Level FlightAware
06:45PM 41.7060 -77.2530 110° East 548 631 39,000  Level FlightAware
06:46PM 41.6750 -77.1370 110° East 546 628 39,000  Level FlightAware
06:46PM 41.6470 -77.0350 110° East 544 626 39,000  Level FlightAware
06:47PM 41.6248 -76.9523 110° East 543 625 39,000  Level FlightAware ADS-B
06:47PM 41.5968 -76.8494 110° East 545 627 39,000  Level FlightAware ADS-B
06:48PM 41.5702 -76.7520 110° East 544 626 39,000  Level FlightAware ADS-B
06:48PM 41.5408 -76.6455 110° East 542 624 39,000  Level FlightAware ADS-B
06:49PM 41.5137 -76.5466 110° East 541 623 39,000 -120 Level FlightAware ADS-B
06:49PM 41.4878 -76.4532 110° East 536 617 38,900 -1,020 Descending FlightAware ADS-B
06:50PM 41.4608 -76.3559 110° East 535 616 38,000 -2,220 Descending FlightAware ADS-B
06:50PM 41.4349 -76.2631 110° East 534 615 36,700 -2,640 Descending FlightAware ADS-B
06:51PM 41.4053 -76.1570 110° East 536 617 35,200 -2,700 Descending FlightAware ADS-B
06:52PM 41.3773 -76.0575 111° Southeast 534 615 33,700 -2,760 Descending FlightAware ADS-B
06:52PM 41.3510 -75.9643 111° Southeast 530 610 32,400 -2,700 Descending FlightAware ADS-B
06:53PM 41.3252 -75.8732 111° Southeast 526 605 31,000 -2,760 Descending FlightAware ADS-B
06:53PM 41.2988 -75.7805 111° Southeast 523 602 29,600 -3,000 Descending FlightAware ADS-B
06:54PM 41.2770 -75.7063 111° Southeast 521 600 28,300 -2,760 Descending FlightAware ADS-B
06:54PM 41.2476 -75.6135 113° Southeast 509 586 27,000 -2,340 Descending FlightAware ADS-B
06:55PM 41.2153 -75.5160 114° Southeast 497 572 25,700 -2,340 Descending FlightAware ADS-B
06:55PM 41.1870 -75.4318 114° Southeast 488 562 24,500 -2,400 Descending FlightAware ADS-B
06:56PM 41.1590 -75.3485 114° Southeast 475 547 23,300 -1,500 Descending FlightAware ADS-B
06:56PM 41.1313 -75.2667 114° Southeast 471 542 23,000 -300 Descending FlightAware ADS-B
06:57PM 41.1040 -75.1860 114° Southeast 470 541 23,000  Level FlightAware ADS-B
06:57PM 41.0755 -75.1020 114° Southeast 470 541 23,000  Level FlightAware ADS-B
06:58PM 41.0468 -75.0180 114° Southeast 472 543 23,000  Level FlightAware ADS-B
06:58PM 41.0196 -74.9376 114° Southeast 471 542 23,000 -600 Level FlightAware ADS-B
06:59PM 41.0007 -74.8726 111° Southeast 473 544 22,500 -1,320 Descending FlightAware ADS-B
06:59PM 40.9804 -74.7881 108° East 465 535 21,800 -1,440 Descending FlightAware ADS-B
07:00PM 40.9682 -74.7325 106° East 454 522 21,300 -1,620 Descending FlightAware ADS-B
07:00PM 40.9628 -74.7070 106° East 451 519 21,000 -1,500 Descending FlightAware ADS-B
07:00PM 40.9458 -74.6269 106° East 440 506 20,300 -1,500 Descending FlightAware ADS-B
07:00PM 40.9444 -74.6204 106° East 439 505 20,200 -1,680 Descending FlightAware ADS-B
07:01PM 40.9279 -74.5422 106° East 434 499 19,400 -1,560 Descending FlightAware ADS-B
07:01PM 40.9256 -74.5311 105° East 435 501 19,300 -780 Descending FlightAware ADS-B
07:01PM 40.9115 -74.4642 106° East 430 495 19,000 -480 Descending FlightAware ADS-B
07:01PM 40.9048 -74.4322 105° East 430 495 19,000  Level FlightAware ADS-B
07:02PM 40.8951 -74.3868 106° East 432 497 19,000  Level FlightAware ADS-B
07:02PM 40.8791 -74.3109 106° East 421 484 19,000  Level FlightAware ADS-B
07:03PM 40.8620 -74.2394 108° East 388 447 19,000  Level FlightAware ADS-B
07:03PM 40.8545 -74.2212 119° Southeast 376 433 19,000 -360 Level FlightAware ADS-B
07:03PM 40.8250 -74.1663 125° Southeast 354 407 18,800 -960 Descending FlightAware ADS-B
07:04PM 40.8045 -74.1291 126° Southeast 348 400 18,200 -1,620 Descending FlightAware ADS-B
07:04PM 40.8039 -74.1281 128° Southeast 348 400 18,200 -1,500 Level FlightAware ADS-B
07:04PM 40.7963 -74.1175 133° Southeast 346 398 18,000 -1,860 Descending FlightAware ADS-B
07:04PM 40.7878 -74.1083 141° Southeast 344 396 17,800 -1,500 Descending FlightAware ADS-B
07:04PM 40.7859 -74.1067 147° Southeast 343 395 17,800 -1,020 Level FlightAware ADS-B
07:04PM 40.7800 -74.1018 148° Southeast 340 391 17,700 -2,040 Descending FlightAware ADS-B
07:04PM 40.7731 -74.0969 152° Southeast 339 390 17,500 -1,800 Descending FlightAware ADS-B
07:05PM 40.7369 -74.0733 154° Southeast 338 389 16,800 -1,560 Descending FlightAware ADS-B
07:05PM 40.7301 -74.0689 154° Southeast 337 388 16,700 -1,560 Descending FlightAware ADS-B
07:05PM 40.6878 -74.0416 154° Southeast 332 382 15,900 -780 Descending FlightAware ADS-B
07:06PM 40.6418 -74.0119 154° Southeast 334 384 15,900 -600 Level FlightAware ADS-B
07:06PM 40.5874 -73.9769 154° Southeast 330 380 15,200 -1,260 Descending FlightAware ADS-B
07:07PM 40.5364 -73.9440 154° Southeast 326 375 14,300 -1,500 Descending FlightAware ADS-B
07:08PM 40.4960 -73.9177 154° Southeast 325 374 13,500 -1,500 Descending FlightAware ADS-B
07:08PM 40.4551 -73.8909 153° Southeast 319 367 12,800 -1,500 Descending FlightAware ADS-B
07:08PM 40.4253 -73.8702 152° Southeast 319 367 12,200 -1,500 Descending FlightAware ADS-B
07:09PM 40.4154 -73.8589 139° Southeast 321 369 12,000 -1,320 Descending FlightAware ADS-B
07:09PM 40.4067 -73.8425 125° Southeast 320 368 11,800 -1,320 Descending FlightAware ADS-B
07:09PM 40.4048 -73.8371 115° Southeast 319 367 11,700 -1,380 Descending FlightAware ADS-B
07:09PM 40.3905 -73.7809 108° East 315 362 11,000 -1,500 Descending FlightAware ADS-B
07:10PM 40.3850 -73.7557 106° East 313 360 10,600 -1,440 Descending FlightAware ADS-B
07:10PM 40.3847 -73.7316 91° East 308 354 10,400 -900 Descending FlightAware ADS-B
07:11PM 40.4117 -73.6616 63° Northeast 297 342 9,800 -840 Descending FlightAware ADS-B
07:11PM 40.4329 -73.6165 58° Northeast 295 339 9,400 -1,080 Descending FlightAware ADS-B
07:11PM 40.4477 -73.5850 58° Northeast 288 331 8,900 -1,320 Descending FlightAware ADS-B
07:12PM 40.4615 -73.5557 58° Northeast 286 329 8,500 -1,320 Descending FlightAware ADS-B
07:12PM 40.4769 -73.5335 48° Northeast 281 323 8,100 -1,440 Descending FlightAware ADS-B
07:12PM 40.4913 -73.5222 31° Northeast 277 319 7,800 -1,440 Descending FlightAware ADS-B
07:13PM 40.5390 -73.4890 28° Northeast 275 316 6,800 -1,380 Descending FlightAware
07:13PM 40.5620 -73.4730 28° Northeast 271 312 6,400 -1,200 Descending FlightAware
07:14PM 40.5830 -73.4580 28° Northeast 269 310 6,000 -1,380 Descending FlightAware
07:14PM 40.6050 -73.4440 26° Northeast 268 308 5,500 -1,560 Descending FlightAware
07:14PM 40.6230 -73.4300 31° Northeast 270 311 5,100 -1,020 Descending FlightAware
07:15PM 40.6450 -73.4140 29° Northeast 272 313 4,900 -420 Descending FlightAware
07:15PM 40.6580 -73.4050 28° Northeast 272 313 4,900  Level FlightAware
07:15PM 40.6680 -73.4010 17° North 259 298 4,900  Level FlightAware
07:15PM 40.6820 -73.3980 North 249 287 4,900  Level FlightAware
07:15PM 40.7080 -73.3920 10° North 244 281 4,900  Level FlightAware
07:16PM 40.7330 -73.3920 360° North 242 278 4,900  Level FlightAware
07:16PM 40.7430 -73.3940 351° North 241 277 4,900 -180 Level FlightAware
07:16PM 40.7700 -73.4090 337° Northwest 262 302 4,800 -540 Descending FlightAware
07:17PM 40.7890 -73.4240 329° Northwest 262 302 4,500 -900 Descending FlightAware
07:17PM 40.8080 -73.4400 327° Northwest 248 285 4,200 -420 Descending FlightAware
07:17PM 40.8280 -73.4580 326° Northwest 248 285 4,200 -600 Level FlightAware
07:18PM 40.8620 -73.4870 327° Northwest 212 244 3,600 -1,440 Descending FlightAware
07:18PM 40.8560 -73.5070 248° West 191 220 3,100 -840 Descending FlightAware
07:19PM 40.8580 -73.5370 275° West 191 220 3,100 -300 Level FlightAware
07:19PM 40.8500 -73.5520 235° Southwest 204 235 2,900 -300 Descending FlightAware
07:19PM 40.8640 -73.5720 313° West 204 235 2,900 -540 Level FlightAware
07:20PM 40.8250 -73.5960 205° Southwest 196 226 2,400 -1,260 Descending FlightAware
07:20PM 40.8100 -73.6200 230° Southwest 199 229 2,000 -720 Descending FlightAware
07:21PM 40.7900 -73.6420 220° Southwest 196 226 1,900 -120 Descending FlightAware
07:21PM 40.7730 -73.6560 212° Southwest 178 205 1,900  Level FlightAware
07:21PM 40.7580 -73.6670 209° Southwest 167 192 1,900  Level FlightAware
07:22PM 40.7500 -73.6730 210° Southwest 166 191 1,900  Level FlightAware
07:22PM 40.7330 -73.6860 210° Southwest 167 192 1,900 -180 Level FlightAware
07:22PM 40.7270 -73.6910 212° Southwest 168 193 1,800 -840 Descending FlightAware
07:23PM 40.7010 -73.7120 211° Southwest 137 158 1,200 -780 Descending FlightAware
07:23PM 40.6900 -73.7200 209° Southwest 136 157 1,000 -840 Descending FlightAware
07:24PM 40.6790 -73.7280 209° Southwest 135 155 700 -840 Descending FlightAware
07:24PM 40.6700 -73.7360 214° Southwest 136 157 500 -600 Descending FlightAware
07:24PM 40.6580 -73.7450 210° Southwest 137 158 300 -600 Descending FlightAware
07:25PM 40.6470 -73.7530 209° Southwest 132 152 -900 Descending FlightAware
07:25PM 40.6350 -73.7630 212° Southwest 72 83  Level FlightAware
07:36PM 40.6390 -73.7770 217° Southwest  Level FlightAware